首页
METAR-TAF:

METAR-TAF

机场 :

普瓦捷, 法国

纬度: 46-35N, 经度: 000-19E, 海拔: 129米

当前天气观测

该预报发布于36分钟前的07:00 UTC
风速1节,风向
温度 5°C
湿度 100%
气压 1009 hPa
能見度: 4100
少量云层高于100英尺
阴天层高于3500英尺
小雨, 轻雾

METAR: LFBI 170700Z AUTO 10001KT 4100 -RA BR FEW001 OVC035 05/05 Q1009 TEMPO 0300 FG VV///

时间: 08:36 (07:36 UTC)

预报

该预报发布于2小时和36分钟前的05:00 UTC
预报有效从17日的 06点(UTC)到 18日的 06点(UTC)
风速3节,风向多变
能見度: 6000
多云层高于2000英尺
几率 40% :
短暂存在
从 17日的 06点(UTC)到 17日的 10点(UTC)
能見度: 0300
几率 40%
从 17日的 10点(UTC)到 17日的 13点(UTC)
多云层高于500英尺
短暂存在
从 17日的 15点(UTC)到 17日的 20点(UTC)
小雨
短暂存在
从 17日的 22点(UTC)到 18日的 06点(UTC)
能見度: 3000
轻雾
几率 30%
从 18日的 02点(UTC)到 18日的 06点(UTC)
能見度: 0500

TAF: LFBI 170500Z 1706/1806 VRB03KT 6000 BKN020 PROB40 TEMPO 1706/1710 0300 FG VV/// PROB40 1710/1713 BKN005 TEMPO 1715/1720 -RA TEMPO 1722/1806 3000 BR PROB30 1802/1806 0500 FG

超过4000个机场的气象观测和天气预报(METAR&TAF报告)。

可查询的气象台以黄色和红色小点在地图上表示。

将鼠标移到小点上方,可查看气象台名称。

然后点击查看天气观测和预报。

如需切换地图:点击带黑十字的绿色按钮放大地图;点击带横线的绿色按钮缩小地图;或者点击绿色箭头查看邻近地区的地图。


METAR-TAF: